createdAt,value
2022-10-01T00:02:23.499Z,48.35
2022-10-01T00:04:51.863Z,48.76
2022-10-01T00:07:19.761Z,48.46
2022-10-01T00:09:47.919Z,48.41
2022-10-01T00:12:16.623Z,48.67
2022-10-01T00:14:45.129Z,48.48
2022-10-01T00:17:13.029Z,48.79
2022-10-01T00:19:42.253Z,48.63
2022-10-01T00:22:12.525Z,48.41
2022-10-01T00:24:40.799Z,48.75
2022-10-01T00:27:08.890Z,48.91
2022-10-01T00:29:37.693Z,48.78
2022-10-01T00:32:05.671Z,48.81
2022-10-01T00:34:33.604Z,48.48
2022-10-01T00:37:02.883Z,48.79
2022-10-01T00:39:30.798Z,48.80
2022-10-01T00:41:58.658Z,48.67
2022-10-01T00:44:33.321Z,48.55
2022-10-01T00:47:10.522Z,48.72
2022-10-01T00:49:40.965Z,48.84
2022-10-01T00:52:15.693Z,49.32
2022-10-01T00:54:51.398Z,49.38
2022-10-01T00:57:23.177Z,49.97
2022-10-01T00:59:52.976Z,49.55
2022-10-01T01:02:21.354Z,49.92
2022-10-01T01:04:49.383Z,50.04
2022-10-01T01:07:19.574Z,49.87
2022-10-01T01:09:49.789Z,50.00
2022-10-01T01:12:34.689Z,49.59
2022-10-01T01:15:15.196Z,49.72
2022-10-01T01:17:53.308Z,49.68
2022-10-01T01:20:42.881Z,49.71
2022-10-01T01:23:27.203Z,49.78
2022-10-01T01:26:02.737Z,49.70
2022-10-01T01:28:35.514Z,49.76
2022-10-01T01:31:09.093Z,50.04
2022-10-01T01:33:40.158Z,49.52
2022-10-01T01:36:12.325Z,49.70
2022-10-01T01:38:41.524Z,49.77
2022-10-01T01:41:11.874Z,49.79
2022-10-01T01:43:46.926Z,49.51
2022-10-01T01:46:17.746Z,49.65
2022-10-01T01:48:49.189Z,49.71
2022-10-01T01:51:25.982Z,49.42
2022-10-01T01:53:55.046Z,49.49
2022-10-01T01:56:23.345Z,49.31
2022-10-01T01:58:53.993Z,49.35
2022-10-01T02:01:36.228Z,49.44
2022-10-01T02:04:07.840Z,49.60
2022-10-01T02:06:50.033Z,49.38
2022-10-01T02:09:29.188Z,49.45
2022-10-01T02:12:09.419Z,49.51
2022-10-01T02:14:48.994Z,49.48
2022-10-01T02:17:22.382Z,49.32
2022-10-01T02:19:56.046Z,49.83
2022-10-01T02:22:29.345Z,49.72
2022-10-01T02:24:59.545Z,49.67
2022-10-01T02:27:30.800Z,49.56
2022-10-01T02:30:07.405Z,49.43
2022-10-01T02:32:37.844Z,49.65
2022-10-01T02:35:08.557Z,49.50
2022-10-01T02:37:38.892Z,49.56
2022-10-01T02:40:11.727Z,49.40
2022-10-01T02:42:41.156Z,49.50
2022-10-01T02:45:14.252Z,49.52
2022-10-01T02:47:45.993Z,49.55
2022-10-01T02:50:14.966Z,49.64
2022-10-01T02:52:45.673Z,49.55
2022-10-01T02:55:15.845Z,49.17
2022-10-01T02:57:42.993Z,49.40
2022-10-01T03:00:15.787Z,49.29
2022-10-01T03:02:47.398Z,49.26
2022-10-01T03:05:16.130Z,49.52
2022-10-01T03:07:44.312Z,49.60
2022-10-01T03:10:15.002Z,49.76
2022-10-01T03:12:46.538Z,49.50
2022-10-01T03:15:19.178Z,49.53
2022-10-01T03:17:47.400Z,49.53
2022-10-01T03:20:15.266Z,49.71
2022-10-01T03:22:46.106Z,49.51
2022-10-01T03:25:14.178Z,49.79
2022-10-01T03:27:42.301Z,49.63
2022-10-01T03:30:10.995Z,49.62
2022-10-01T03:32:40.439Z,49.77
2022-10-01T03:35:11.008Z,49.61
2022-10-01T03:37:39.004Z,49.81
2022-10-01T03:40:08.125Z,49.81
2022-10-01T03:42:36.047Z,49.78
2022-10-01T03:45:04.147Z,49.62
2022-10-01T03:47:32.064Z,49.66
2022-10-01T03:50:01.314Z,49.87
2022-10-01T03:52:29.234Z,49.98
2022-10-01T03:54:57.379Z,49.86
2022-10-01T03:57:25.400Z,49.73
2022-10-01T03:59:53.351Z,49.69
2022-10-01T04:02:22.079Z,49.77
2022-10-01T04:04:50.640Z,49.64
2022-10-01T04:07:19.935Z,49.75
2022-10-01T04:09:47.809Z,49.69
2022-10-01T04:12:15.788Z,50.01
2022-10-01T04:14:43.688Z,49.87
2022-10-01T04:17:11.614Z,49.94
2022-10-01T04:19:39.455Z,49.88
2022-10-01T04:22:09.457Z,49.84
2022-10-01T04:24:38.735Z,49.85
2022-10-01T04:27:06.603Z,49.84
2022-10-01T04:29:39.351Z,49.90
2022-10-01T04:32:08.412Z,49.76
2022-10-01T04:34:54.272Z,49.85
2022-10-01T04:37:22.838Z,50.13
2022-10-01T04:39:52.070Z,50.00
2022-10-01T04:42:20.663Z,50.04
2022-10-01T04:44:48.728Z,50.08
2022-10-01T04:47:16.655Z,50.04
2022-10-01T04:49:44.494Z,50.20
2022-10-01T04:52:12.599Z,50.05
2022-10-01T04:54:40.461Z,50.16
2022-10-01T04:57:09.739Z,50.00
2022-10-01T04:59:37.661Z,50.06
2022-10-01T05:02:07.906Z,49.91
2022-10-01T05:04:35.843Z,50.25
2022-10-01T05:07:03.666Z,50.23
2022-10-01T05:09:34.230Z,50.36
2022-10-01T05:12:02.680Z,50.38
2022-10-01T05:14:31.929Z,50.33
2022-10-01T05:17:03.647Z,50.12
2022-10-01T05:19:31.787Z,50.17
2022-10-01T05:21:59.748Z,50.18
2022-10-01T05:24:27.663Z,50.24
2022-10-01T05:26:55.598Z,50.29
2022-10-01T05:29:23.497Z,50.31
2022-10-01T05:31:52.832Z,50.40
2022-10-01T05:34:20.865Z,50.06
2022-10-01T05:36:49.010Z,50.38
2022-10-01T05:39:17.112Z,50.37
2022-10-01T05:41:45.010Z,50.25
2022-10-01T05:44:12.951Z,50.37
2022-10-01T05:46:41.648Z,50.31
2022-10-01T05:49:10.873Z,50.39
2022-10-01T05:51:39.335Z,50.35
2022-10-01T05:54:09.632Z,50.39
2022-10-01T05:56:37.935Z,50.64
2022-10-01T05:59:07.012Z,50.45
2022-10-01T06:01:35.129Z,50.67
2022-10-01T06:04:03.396Z,50.66
2022-10-01T06:06:32.676Z,50.47
2022-10-01T06:09:00.677Z,50.41
2022-10-01T06:11:28.752Z,50.44
2022-10-01T06:13:56.652Z,50.65
2022-10-01T06:16:24.578Z,50.74
2022-10-01T06:18:57.453Z,50.92
2022-10-01T06:21:25.770Z,50.91
2022-10-01T06:23:56.235Z,51.31
2022-10-01T06:26:24.427Z,51.78
2022-10-01T06:28:52.977Z,51.80
2022-10-01T06:31:21.291Z,51.76
2022-10-01T06:33:49.221Z,51.75
2022-10-01T06:36:17.226Z,52.23
2022-10-01T06:38:45.507Z,52.16
2022-10-01T06:41:14.780Z,51.91
2022-10-01T06:43:42.671Z,51.98
2022-10-01T06:46:11.209Z,51.92
2022-10-01T06:48:39.200Z,51.95
2022-10-01T06:51:08.605Z,51.83
2022-10-01T06:53:35.822Z,52.10
2022-10-01T06:56:07.665Z,52.10
2022-10-01T06:58:37.430Z,52.03
2022-10-01T07:01:05.398Z,51.92
2022-10-01T07:03:33.336Z,52.03
2022-10-01T07:06:08.000Z,52.07
2022-10-01T07:08:35.975Z,51.96
2022-10-01T07:11:05.005Z,52.09
2022-10-01T07:13:32.928Z,52.01
2022-10-01T07:16:03.899Z,51.97
2022-10-01T07:18:31.933Z,51.86
2022-10-01T07:21:00.075Z,52.09
2022-10-01T07:23:30.352Z,52.21
2022-10-01T07:25:58.982Z,52.40
2022-10-01T07:28:28.163Z,52.64
2022-10-01T07:31:01.158Z,52.57
2022-10-01T07:33:30.796Z,52.56
2022-10-01T07:36:01.647Z,52.48
2022-10-01T07:38:29.670Z,52.40
2022-10-01T07:40:58.993Z,52.02
2022-10-01T07:43:27.066Z,51.85
2022-10-01T07:45:58.070Z,51.85
2022-10-01T07:48:26.525Z,52.06
2022-10-01T07:50:57.934Z,52.47
2022-10-01T07:53:27.493Z,52.66
2022-10-01T07:55:55.374Z,52.50
2022-10-01T07:58:24.083Z,52.89
2022-10-01T08:00:56.215Z,52.74
2022-10-01T08:03:24.342Z,53.12
2022-10-01T08:05:53.073Z,53.43
2022-10-01T08:08:22.362Z,53.52
2022-10-01T08:10:50.979Z,53.61
2022-10-01T08:13:24.894Z,54.08
2022-10-01T08:15:54.901Z,54.12
2022-10-01T08:18:23.705Z,53.99
2022-10-01T08:20:52.500Z,53.47
2022-10-01T08:23:20.419Z,53.38
2022-10-01T08:25:49.645Z,53.40
2022-10-01T08:28:17.755Z,53.44
2022-10-01T08:30:45.679Z,53.36
2022-10-01T08:33:14.788Z,53.54
2022-10-01T08:35:44.390Z,53.50
2022-10-01T08:38:13.449Z,53.29
2022-10-01T08:40:45.030Z,53.64
2022-10-01T08:43:29.854Z,53.60
2022-10-01T08:46:01.645Z,53.85
2022-10-01T08:48:39.637Z,54.41
2022-10-01T08:51:17.088Z,54.74
2022-10-01T08:53:49.370Z,54.21
2022-10-01T08:56:19.973Z,54.02
2022-10-01T08:58:57.753Z,54.60
2022-10-01T09:01:25.987Z,54.77
2022-10-01T09:03:54.999Z,54.10
2022-10-01T09:06:27.757Z,54.48
2022-10-01T09:09:32.937Z,54.77
2022-10-01T09:12:13.211Z,54.72
2022-10-01T09:14:56.734Z,54.68
2022-10-01T09:17:38.390Z,54.96
2022-10-01T09:20:19.450Z,55.15
2022-10-01T09:23:00.114Z,55.30
2022-10-01T09:25:29.006Z,56.41
2022-10-01T09:28:04.095Z,56.08
2022-10-01T09:30:34.108Z,56.09
2022-10-01T09:33:12.065Z,56.98
2022-10-01T09:35:45.362Z,56.85
2022-10-01T09:38:20.044Z,56.90
2022-10-01T09:40:54.929Z,56.86
2022-10-01T09:43:24.726Z,56.72
2022-10-01T09:45:56.550Z,56.96
2022-10-01T09:48:31.599Z,56.91
2022-10-01T09:51:05.342Z,57.09
2022-10-01T09:53:37.853Z,57.05
2022-10-01T09:56:12.896Z,57.21
2022-10-01T09:58:47.728Z,57.39
2022-10-01T10:01:26.264Z,57.63
2022-10-01T10:03:56.251Z,58.18
2022-10-01T10:06:28.188Z,58.15
2022-10-01T10:08:57.973Z,58.12
2022-10-01T10:11:28.606Z,58.11
2022-10-01T10:14:00.341Z,58.13
2022-10-01T10:16:31.885Z,58.62
2022-10-01T10:19:03.921Z,58.79
2022-10-01T10:21:35.098Z,58.83
2022-10-01T10:24:05.461Z,58.86
2022-10-01T10:26:35.974Z,58.74
2022-10-01T10:29:05.763Z,58.66
2022-10-01T10:31:42.042Z,58.70
2022-10-01T10:34:17.511Z,58.74
2022-10-01T10:36:47.681Z,58.54
2022-10-01T10:39:22.844Z,58.58
2022-10-01T10:41:53.842Z,58.66
2022-10-01T10:44:25.101Z,58.49
2022-10-01T10:47:00.504Z,58.55
2022-10-01T10:49:31.305Z,58.50
2022-10-01T10:52:01.146Z,58.36
2022-10-01T10:54:32.868Z,58.58
2022-10-01T10:57:03.297Z,58.56
2022-10-01T10:59:35.765Z,58.71
2022-10-01T11:02:14.341Z,58.52
2022-10-01T11:04:44.425Z,58.09
2022-10-01T11:07:21.645Z,58.01
2022-10-01T11:10:04.401Z,58.34
2022-10-01T11:12:46.748Z,58.87
2022-10-01T11:15:30.656Z,59.04
2022-10-01T11:18:19.335Z,58.67
2022-10-01T11:20:56.198Z,58.89
2022-10-01T11:23:42.412Z,58.61
2022-10-01T11:26:19.374Z,58.61
2022-10-01T11:28:55.179Z,58.19
2022-10-01T11:31:32.784Z,58.24
2022-10-01T11:34:18.994Z,58.34
2022-10-01T11:36:56.397Z,58.35
2022-10-01T11:39:28.455Z,58.01
2022-10-01T11:42:02.143Z,57.89
2022-10-01T11:44:36.367Z,58.15
2022-10-01T11:47:09.641Z,57.82
2022-10-01T11:49:59.585Z,57.70
2022-10-01T11:52:38.301Z,57.70
2022-10-01T11:55:32.718Z,57.52
2022-10-01T11:58:25.549Z,57.70
2022-10-01T12:01:01.424Z,57.38
2022-10-01T12:03:38.198Z,57.63
2022-10-01T12:06:14.776Z,57.34
2022-10-01T12:08:48.305Z,57.32
2022-10-01T12:11:23.195Z,57.36
2022-10-01T12:14:00.257Z,57.09
2022-10-01T12:16:40.284Z,57.29
2022-10-01T12:19:15.056Z,57.15
2022-10-01T12:21:49.622Z,57.20
2022-10-01T12:24:21.475Z,56.93
2022-10-01T12:27:03.061Z,56.91
2022-10-01T12:29:42.675Z,56.70
2022-10-01T12:32:23.593Z,56.81
2022-10-01T12:35:05.258Z,56.44
2022-10-01T12:37:52.974Z,56.37
2022-10-01T12:40:30.961Z,56.32
2022-10-01T12:43:30.010Z,56.29
2022-10-01T12:46:05.210Z,56.33
2022-10-01T12:48:42.270Z,56.06
2022-10-01T12:51:29.589Z,56.29
2022-10-01T12:54:13.394Z,55.97
2022-10-01T12:56:46.800Z,56.12
2022-10-01T12:59:38.524Z,56.06
2022-10-01T13:02:20.230Z,55.97
2022-10-01T13:05:03.440Z,55.94
2022-10-01T13:07:46.941Z,55.96
2022-10-01T13:10:27.598Z,56.01
2022-10-01T13:13:07.762Z,55.57
2022-10-01T13:15:39.119Z,55.73
2022-10-01T13:18:19.295Z,56.00
2022-10-01T13:20:57.684Z,55.79
2022-10-01T13:23:34.006Z,55.61
2022-10-01T13:26:09.061Z,55.54
2022-10-01T13:28:58.787Z,55.74
2022-10-01T13:31:36.261Z,55.65
2022-10-01T13:34:04.896Z,55.69
2022-10-01T13:36:34.573Z,55.78
2022-10-01T13:39:02.997Z,55.76
2022-10-01T13:41:34.820Z,55.45
2022-10-01T13:44:22.869Z,55.70
2022-10-01T13:46:53.446Z,55.64
2022-10-01T13:49:26.297Z,55.70
2022-10-01T13:51:55.059Z,55.45
2022-10-01T13:54:28.726Z,55.42
2022-10-01T13:57:08.759Z,55.23
2022-10-01T13:59:37.872Z,55.36
2022-10-01T14:02:33.682Z,55.38
2022-10-01T14:05:28.353Z,55.36
2022-10-01T14:08:11.793Z,55.14
2022-10-01T14:10:59.272Z,55.18
2022-10-01T14:13:48.762Z,54.96
2022-10-01T14:16:18.330Z,54.86
2022-10-01T14:18:50.233Z,55.01
2022-10-01T14:21:36.169Z,55.37
2022-10-01T14:24:15.766Z,55.41
2022-10-01T14:26:52.026Z,55.24
2022-10-01T14:29:35.234Z,55.16
2022-10-01T14:32:17.538Z,55.06
2022-10-01T14:34:57.216Z,54.93
2022-10-01T14:37:25.291Z,55.30
2022-10-01T14:40:02.599Z,55.11
2022-10-01T14:42:30.604Z,55.09
2022-10-01T14:44:59.943Z,55.35
2022-10-01T14:47:34.954Z,55.15
2022-10-01T14:50:11.382Z,55.17
2022-10-01T14:52:46.287Z,54.98
2022-10-01T14:55:15.768Z,54.98
2022-10-01T14:57:47.330Z,54.86
2022-10-01T15:00:19.083Z,55.07
2022-10-01T15:02:49.217Z,55.02
2022-10-01T15:05:26.157Z,55.12
2022-10-01T15:07:54.600Z,55.01
2022-10-01T15:10:28.589Z,54.99
2022-10-01T15:12:57.326Z,55.22
2022-10-01T15:15:35.320Z,55.14
2022-10-01T15:18:05.360Z,55.09
2022-10-01T15:20:33.627Z,55.02
2022-10-01T15:23:02.029Z,55.09
2022-10-01T15:25:32.786Z,54.98
2022-10-01T15:28:00.975Z,55.22
2022-10-01T15:30:30.528Z,55.01
2022-10-01T15:32:59.064Z,55.16
2022-10-01T15:35:27.254Z,55.24
2022-10-01T15:38:00.520Z,55.12
2022-10-01T15:40:35.505Z,54.74
2022-10-01T15:43:26.432Z,54.43
2022-10-01T15:46:17.283Z,55.37
2022-10-01T15:48:46.185Z,55.44
2022-10-01T15:51:20.202Z,55.24
2022-10-01T15:53:48.149Z,55.38
2022-10-01T15:56:20.080Z,55.54
2022-10-01T15:58:52.236Z,55.59
2022-10-01T16:01:23.948Z,55.69
2022-10-01T16:04:01.553Z,55.27
2022-10-01T16:06:35.807Z,55.48
2022-10-01T16:09:08.129Z,55.57
2022-10-01T16:11:52.858Z,55.51
2022-10-01T16:14:30.699Z,55.34
2022-10-01T16:17:28.005Z,55.73
2022-10-01T16:19:57.936Z,55.32
2022-10-01T16:22:28.970Z,54.79
2022-10-01T16:24:58.328Z,55.45
2022-10-01T16:27:29.303Z,55.60
2022-10-01T16:30:05.689Z,55.87
2022-10-01T16:32:35.821Z,55.71
2022-10-01T16:35:18.734Z,55.86
2022-10-01T16:37:48.228Z,55.82
2022-10-01T16:40:16.615Z,55.92
2022-10-01T16:42:45.840Z,55.86
2022-10-01T16:45:17.787Z,55.89
2022-10-01T16:47:47.846Z,55.94
2022-10-01T16:50:18.724Z,55.75
2022-10-01T16:52:46.753Z,55.86
2022-10-01T16:55:22.549Z,56.06
2022-10-01T16:57:50.809Z,56.05
2022-10-01T17:00:20.811Z,55.70
2022-10-01T17:02:50.134Z,55.75
2022-10-01T17:05:20.623Z,55.88
2022-10-01T17:07:48.996Z,55.83
2022-10-01T17:10:18.622Z,55.72
2022-10-01T17:12:47.768Z,55.74
2022-10-01T17:15:18.192Z,55.62
2022-10-01T17:17:46.757Z,55.94
2022-10-01T17:20:16.657Z,56.14
2022-10-01T17:22:44.666Z,56.06
2022-10-01T17:25:16.690Z,56.17
2022-10-01T17:27:44.809Z,55.94
2022-10-01T17:30:13.200Z,55.92
2022-10-01T17:32:42.927Z,55.96
2022-10-01T17:35:11.438Z,56.15
2022-10-01T17:37:40.875Z,56.26
2022-10-01T17:40:11.217Z,56.04
2022-10-01T17:42:41.754Z,56.25
2022-10-01T17:45:11.809Z,56.34
2022-10-01T17:47:44.793Z,56.38
2022-10-01T17:50:13.601Z,56.52
2022-10-01T17:52:44.837Z,56.40
2022-10-01T17:55:13.200Z,56.49
2022-10-01T17:57:41.151Z,56.70
2022-10-01T18:00:09.929Z,56.61
2022-10-01T18:02:42.073Z,56.37
2022-10-01T18:05:12.608Z,56.34
2022-10-01T18:07:42.501Z,56.49
2022-10-01T18:10:12.731Z,56.43
2022-10-01T18:12:41.280Z,56.82
2022-10-01T18:15:10.634Z,57.28
2022-10-01T18:17:43.392Z,56.95
2022-10-01T18:20:20.003Z,57.22
2022-10-01T18:22:49.406Z,57.32
2022-10-01T18:25:19.306Z,57.14
2022-10-01T18:27:50.107Z,57.06
2022-10-01T18:30:20.216Z,57.40
2022-10-01T18:32:51.909Z,57.32
2022-10-01T18:35:23.159Z,57.05
2022-10-01T18:37:55.806Z,57.00
2022-10-01T18:40:28.787Z,57.21
2022-10-01T18:43:01.033Z,57.19
2022-10-01T18:45:43.167Z,57.32
2022-10-01T18:48:38.189Z,57.19
2022-10-01T18:51:16.936Z,57.39
2022-10-01T18:54:10.834Z,57.55
2022-10-01T18:56:45.929Z,57.34
2022-10-01T18:59:43.566Z,57.41
2022-10-01T19:02:35.041Z,57.64
2022-10-01T19:05:35.638Z,57.25
2022-10-01T19:08:17.953Z,57.26
2022-10-01T19:10:51.447Z,57.48
2022-10-01T19:13:26.043Z,57.71
2022-10-01T19:16:06.984Z,57.33
2022-10-01T19:18:54.245Z,57.45
2022-10-01T19:21:29.458Z,57.55
2022-10-01T19:24:16.749Z,57.39
2022-10-01T19:26:57.255Z,57.33
2022-10-01T19:29:41.744Z,57.05
2022-10-01T19:32:14.389Z,57.37
2022-10-01T19:34:47.313Z,57.32
2022-10-01T19:37:21.682Z,57.48
2022-10-01T19:39:52.557Z,57.77
2022-10-01T19:42:27.146Z,57.46
2022-10-01T19:45:01.323Z,57.33
2022-10-01T19:47:39.706Z,57.79
2022-10-01T19:50:19.501Z,57.50
2022-10-01T19:52:51.425Z,57.74
2022-10-01T19:55:22.960Z,57.38
2022-10-01T19:57:52.957Z,57.56
2022-10-01T20:00:23.050Z,57.77
2022-10-01T20:02:57.875Z,57.43
2022-10-01T20:05:29.793Z,57.53
2022-10-01T20:08:04.688Z,57.57
2022-10-01T20:10:39.064Z,57.76
2022-10-01T20:13:26.071Z,57.64
2022-10-01T20:16:01.189Z,57.50
2022-10-01T20:18:38.445Z,57.56
2022-10-01T20:21:24.261Z,57.65
2022-10-01T20:23:59.846Z,57.70
2022-10-01T20:26:38.557Z,57.61
2022-10-01T20:29:33.503Z,57.70
2022-10-01T20:32:10.442Z,57.53
2022-10-01T20:34:46.287Z,57.58
2022-10-01T20:37:34.788Z,57.49
2022-10-01T20:40:06.705Z,55.45
2022-10-01T20:42:41.450Z,56.67
2022-10-01T20:45:19.211Z,57.06
2022-10-01T20:47:53.968Z,57.05
2022-10-01T20:50:29.032Z,57.25
2022-10-01T20:53:06.071Z,57.45
2022-10-01T20:55:40.592Z,57.20
2022-10-01T20:58:15.625Z,57.62
2022-10-01T21:00:47.124Z,57.44
2022-10-01T21:03:26.673Z,56.91
2022-10-01T21:05:58.221Z,56.33
2022-10-01T21:08:39.987Z,57.35
2022-10-01T21:11:14.478Z,57.40
2022-10-01T21:13:48.903Z,57.37
2022-10-01T21:16:40.091Z,57.43
2022-10-01T21:19:20.615Z,57.44
2022-10-01T21:21:57.194Z,57.67
2022-10-01T21:24:37.417Z,57.48
2022-10-01T21:27:24.059Z,57.49
2022-10-01T21:30:13.561Z,57.57
2022-10-01T21:33:14.033Z,57.64
2022-10-01T21:35:55.095Z,57.66
2022-10-01T21:38:32.147Z,57.55
2022-10-01T21:41:32.923Z,57.83
2022-10-01T21:44:25.059Z,57.77
2022-10-01T21:46:59.566Z,57.86
2022-10-01T21:49:40.230Z,57.70
2022-10-01T21:52:16.595Z,57.88
2022-10-01T21:55:17.145Z,57.56
2022-10-01T21:58:04.899Z,57.62
2022-10-01T22:00:33.285Z,57.52
2022-10-01T22:03:12.409Z,57.60
2022-10-01T22:05:50.331Z,57.74
2022-10-01T22:08:42.280Z,57.76
2022-10-01T22:11:15.984Z,57.84
2022-10-01T22:13:55.935Z,57.84
2022-10-01T22:16:27.925Z,57.71
2022-10-01T22:18:58.212Z,57.78
2022-10-01T22:21:34.727Z,57.84
2022-10-01T22:24:07.476Z,57.83
2022-10-01T22:26:41.376Z,57.73
2022-10-01T22:29:17.044Z,57.96
2022-10-01T22:31:49.039Z,57.57
2022-10-01T22:34:21.208Z,57.52
2022-10-01T22:36:55.424Z,57.65
2022-10-01T22:39:25.809Z,57.51
2022-10-01T22:42:00.056Z,57.65
2022-10-01T22:44:29.433Z,57.50
2022-10-01T22:47:18.391Z,57.49
2022-10-01T22:50:00.228Z,57.52
2022-10-01T22:52:36.976Z,57.36
2022-10-01T22:55:29.612Z,57.29
2022-10-01T22:58:06.356Z,57.25
2022-10-01T23:00:40.950Z,56.98
2022-10-01T23:03:32.881Z,56.95
2022-10-01T23:06:07.285Z,57.17
2022-10-01T23:08:45.061Z,56.99
2022-10-01T23:11:22.689Z,56.96
2022-10-01T23:14:01.354Z,56.90
2022-10-01T23:16:36.739Z,56.93
2022-10-01T23:19:20.892Z,57.02
2022-10-01T23:21:59.412Z,56.96
2022-10-01T23:24:42.943Z,56.96
2022-10-01T23:27:22.640Z,56.67
2022-10-01T23:30:03.771Z,56.95
2022-10-01T23:32:51.125Z,56.79
2022-10-01T23:35:21.283Z,56.76
2022-10-01T23:38:13.898Z,56.57
2022-10-01T23:40:44.916Z,56.70
2022-10-01T23:43:20.385Z,56.65
2022-10-01T23:45:53.464Z,56.61
2022-10-01T23:48:28.225Z,56.59
2022-10-01T23:51:02.464Z,56.66
2022-10-01T23:53:36.773Z,56.45
2022-10-01T23:56:29.389Z,56.70
2022-10-01T23:59:01.510Z,56.45
